Time;durP1;ratioP1;P1;durP2;ratioP2;P2;SDS_P1;SDS_P2;PMS_P1;PMS_P2;Temp;Humidity;BMP_temperature;BMP_pressure;BME280_temperature;BME280_humidity;BME280_pressure;Samples;Min_cycle;Max_cycle;Signal;HPM_P1;HPM_P2
2023/06/14 00:00:16;;;;;;;;;;;19.40;99.90;;;;;;4988208;28;20477;-72
2023/06/14 00:02:42;;;;;;;;;;;19.30;99.90;;;;;;5008193;28;20021;-73
2023/06/14 00:05:11;;;;;;;;;;;19.20;99.90;;;;;;5004315;28;19926;-73
2023/06/14 00:07:42;;;;;;;;;;;19.10;99.90;;;;;;4994723;28;19948;-73
2023/06/14 00:10:09;;;;;;;;;;;19.10;99.90;;;;;;5000451;28;19926;-73
2023/06/14 00:12:36;;;;;;;;;;;19.00;99.90;;;;;;5000369;28;19933;-73
2023/06/14 00:15:03;;;;;;;;;;;18.90;99.90;;;;;;4994958;28;19926;-72
2023/06/14 00:17:32;;;;;;;;;;;18.80;99.90;;;;;;5004910;28;19925;-73
2023/06/14 00:19:59;;;;;;;;;;;18.70;99.90;;;;;;4985199;28;19925;-72
2023/06/14 00:22:26;;;;;;;;;;;18.70;99.90;;;;;;4996645;28;19926;-73
2023/06/14 00:24:53;;;;;;;;;;;18.60;99.90;;;;;;4990557;28;19984;-72
2023/06/14 00:27:19;;;;;;;;;;;18.60;99.90;;;;;;5007075;28;19926;-73
2023/06/14 00:29:46;;;;;;;;;;;18.50;99.90;;;;;;5002989;28;19926;-73
2023/06/14 00:32:13;;;;;;;;;;;18.40;99.90;;;;;;5000639;28;19925;-73
2023/06/14 00:34:41;;;;;;;;;;;18.40;99.90;;;;;;5000864;28;20413;-73
2023/06/14 00:37:08;;;;;;;;;;;18.40;99.90;;;;;;4990601;28;20313;-73
2023/06/14 00:39:35;;;;;;;;;;;18.40;99.90;;;;;;5006060;28;19969;-73
2023/06/14 00:42:02;;;;;;;;;;;18.40;99.90;;;;;;4984776;28;19926;-73
2023/06/14 00:44:29;;;;;;;;;;;18.40;99.90;;;;;;4985502;28;19992;-73
2023/06/14 00:46:56;;;;;;;;;;;18.40;99.90;;;;;;4980326;28;19980;-73
2023/06/14 00:49:23;;;;;;;;;;;18.40;99.90;;;;;;4987147;28;20194;-73
2023/06/14 00:51:52;;;;;;;;;;;18.40;99.90;;;;;;4990059;28;19926;-73
2023/06/14 00:54:19;;;;;;;;;;;18.40;99.90;;;;;;5004922;28;19968;-73
2023/06/14 00:56:46;;;;;;;;;;;18.40;99.90;;;;;;4995027;28;19925;-73
2023/06/14 00:59:13;;;;;;;;;;;18.40;99.90;;;;;;4987195;28;20017;-73
2023/06/14 01:01:39;;;;;;;;;;;18.30;99.90;;;;;;4991700;28;19932;-73
2023/06/14 01:04:09;;;;;;;;;;;18.30;99.90;;;;;;4988985;28;19925;-73
2023/06/14 01:06:41;;;;;;;;;;;18.20;99.90;;;;;;5008202;28;20351;-72
2023/06/14 01:09:13;;;;;;;;;;;18.10;99.90;;;;;;5002123;28;19925;-73
2023/06/14 01:11:45;;;;;;;;;;;18.00;99.90;;;;;;4981057;28;19980;-72
2023/06/14 01:14:13;;;;;;;;;;;17.90;99.90;;;;;;4985813;28;20376;-73
2023/06/14 01:16:41;;;;;;;;;;;17.90;99.90;;;;;;5011786;28;19971;-73
2023/06/14 01:19:12;;;;;;;;;;;17.80;99.90;;;;;;4985534;28;20367;-73
2023/06/14 01:21:41;;;;;;;;;;;17.80;99.90;;;;;;5004438;28;19925;-73
2023/06/14 01:24:10;;;;;;;;;;;17.70;99.90;;;;;;5002604;28;19926;-73
2023/06/14 01:26:38;;;;;;;;;;;17.60;99.90;;;;;;5009004;28;20423;-73
2023/06/14 01:29:05;;;;;;;;;;;17.60;99.90;;;;;;5007673;28;19930;-73
2023/06/14 01:31:41;;;;;;;;;;;17.60;99.90;;;;;;4983327;28;20024;-72
2023/06/14 01:34:08;;;;;;;;;;;17.60;99.90;;;;;;5003232;28;19926;-73
2023/06/14 01:36:35;;;;;;;;;;;17.60;99.90;;;;;;4982996;28;19926;-72
2023/06/14 01:39:02;;;;;;;;;;;17.70;99.90;;;;;;5010514;28;19926;-73
2023/06/14 01:41:31;;;;;;;;;;;17.90;99.90;;;;;;5006942;28;19925;-73
2023/06/14 01:43:58;;;;;;;;;;;18.00;99.90;;;;;;4987562;28;19925;-73
2023/06/14 01:46:26;;;;;;;;;;;18.10;99.90;;;;;;5000813;28;19937;-72
2023/06/14 01:48:54;;;;;;;;;;;18.00;99.90;;;;;;5000865;28;19929;-73
2023/06/14 01:51:21;;;;;;;;;;;18.00;99.90;;;;;;5005645;28;19926;-73
2023/06/14 01:53:49;;;;;;;;;;;18.00;99.90;;;;;;5005905;28;19956;-72
2023/06/14 01:56:16;;;;;;;;;;;18.00;99.90;;;;;;5008858;28;19925;-72
2023/06/14 01:58:44;;;;;;;;;;;17.90;99.90;;;;;;5005602;28;19926;-72
2023/06/14 02:01:12;;;;;;;;;;;17.90;99.90;;;;;;5010438;28;19961;-73
2023/06/14 02:03:39;;;;;;;;;;;17.90;99.90;;;;;;5000749;28;19926;-72
2023/06/14 02:06:06;;;;;;;;;;;17.90;99.90;;;;;;5005064;28;19929;-73
2023/06/14 02:08:33;;;;;;;;;;;17.90;99.90;;;;;;5001731;28;19925;-71
2023/06/14 02:11:01;;;;;;;;;;;17.90;99.90;;;;;;5003924;28;19933;-72
2023/06/14 02:13:28;;;;;;;;;;;17.80;99.90;;;;;;4993847;28;19925;-71
2023/06/14 02:15:57;;;;;;;;;;;17.80;99.90;;;;;;5003845;28;20320;-71
2023/06/14 02:18:23;;;;;;;;;;;17.70;99.90;;;;;;5003935;28;20369;-71
2023/06/14 02:20:50;;;;;;;;;;;17.70;99.90;;;;;;5009455;28;19926;-71
2023/06/14 02:23:18;;;;;;;;;;;17.60;99.90;;;;;;5000549;28;19932;-71
2023/06/14 02:25:45;;;;;;;;;;;17.50;99.90;;;;;;4992288;28;19925;-71
2023/06/14 02:28:13;;;;;;;;;;;17.50;99.90;;;;;;5007368;28;20025;-71
2023/06/14 02:30:41;;;;;;;;;;;17.40;99.90;;;;;;5009799;28;20379;-71
2023/06/14 02:33:12;;;;;;;;;;;17.30;99.90;;;;;;5008413;28;19930;-71
2023/06/14 02:35:40;;;;;;;;;;;17.20;99.90;;;;;;4998539;28;19932;-71
2023/06/14 02:38:07;;;;;;;;;;;17.10;99.90;;;;;;5009126;28;19925;-71
2023/06/14 02:40:34;;;;;;;;;;;17.00;99.90;;;;;;5004290;28;19925;-71
2023/06/14 02:43:01;;;;;;;;;;;16.90;99.90;;;;;;4986395;28;19941;-71
2023/06/14 02:45:28;;;;;;;;;;;16.80;99.90;;;;;;5000538;28;19926;-71
2023/06/14 02:47:55;;;;;;;;;;;16.80;99.90;;;;;;5010627;28;19929;-71
2023/06/14 02:50:23;;;;;;;;;;;16.60;99.90;;;;;;5008328;28;19972;-71
2023/06/14 02:52:52;;;;;;;;;;;16.50;99.90;;;;;;5005174;28;20352;-71
2023/06/14 02:55:19;;;;;;;;;;;16.40;99.90;;;;;;4982135;28;19926;-71
2023/06/14 02:57:47;;;;;;;;;;;16.30;99.90;;;;;;4997128;28;19930;-71
2023/06/14 03:00:15;;;;;;;;;;;16.20;99.90;;;;;;4993082;28;19964;-71
2023/06/14 03:02:44;;;;;;;;;;;16.20;99.90;;;;;;4988462;28;19934;-71
2023/06/14 03:05:11;;;;;;;;;;;16.10;99.90;;;;;;5002943;28;19930;-71
2023/06/14 03:07:40;;;;;;;;;;;16.10;99.90;;;;;;4988715;28;19926;-71
2023/06/14 03:10:08;;;;;;;;;;;16.10;99.90;;;;;;5005875;28;19926;-71
2023/06/14 03:12:36;;;;;;;;;;;16.00;99.90;;;;;;4992826;28;19953;-71
2023/06/14 03:15:04;;;;;;;;;;;15.90;99.90;;;;;;4987819;28;19926;-71
2023/06/14 03:17:38;;;;;;;;;;;15.90;99.90;;;;;;4986235;28;19986;-71
2023/06/14 03:20:06;;;;;;;;;;;15.80;99.90;;;;;;5003179;28;19929;-71
2023/06/14 03:22:34;;;;;;;;;;;15.80;99.90;;;;;;4986046;28;20443;-71
2023/06/14 03:25:04;;;;;;;;;;;15.70;99.90;;;;;;5008681;28;19931;-71
2023/06/14 03:27:33;;;;;;;;;;;15.70;99.90;;;;;;4989503;28;19929;-71
2023/06/14 03:30:00;;;;;;;;;;;15.70;99.90;;;;;;4979111;28;19926;-71
2023/06/14 03:32:27;;;;;;;;;;;15.70;99.90;;;;;;4981805;28;19926;-71
2023/06/14 03:34:55;;;;;;;;;;;15.70;99.90;;;;;;4995940;28;20425;-71
2023/06/14 03:37:24;;;;;;;;;;;15.70;99.90;;;;;;4981603;28;19933;-71
2023/06/14 03:39:51;;;;;;;;;;;15.70;99.90;;;;;;4997148;28;19925;-71
2023/06/14 03:42:25;;;;;;;;;;;15.70;99.90;;;;;;5001486;28;19969;-71
2023/06/14 03:44:51;;;;;;;;;;;15.70;99.90;;;;;;4996873;28;20459;-72
2023/06/14 03:47:21;;;;;;;;;;;15.70;99.90;;;;;;4993446;28;19926;-71
2023/06/14 03:49:48;;;;;;;;;;;15.70;99.90;;;;;;4999437;28;19932;-71
2023/06/14 03:52:16;;;;;;;;;;;15.80;99.90;;;;;;4993866;28;19926;-71
2023/06/14 03:54:46;;;;;;;;;;;15.80;99.90;;;;;;4981686;28;19932;-72
2023/06/14 03:57:13;;;;;;;;;;;15.80;99.90;;;;;;4980693;28;19977;-72
2023/06/14 03:59:42;;;;;;;;;;;15.80;99.90;;;;;;4980361;28;19932;-72
2023/06/14 04:02:10;;;;;;;;;;;15.70;99.90;;;;;;4996239;28;19926;-72
2023/06/14 04:04:37;;;;;;;;;;;15.70;99.90;;;;;;4981879;28;19930;-72
2023/06/14 04:07:05;;;;;;;;;;;15.70;99.90;;;;;;4977971;28;19925;-72
2023/06/14 04:09:33;;;;;;;;;;;15.60;99.90;;;;;;4980233;28;19948;-72
2023/06/14 04:11:59;;;;;;;;;;;15.60;99.90;;;;;;4994909;28;19926;-71
2023/06/14 04:14:26;;;;;;;;;;;15.60;99.90;;;;;;4998446;28;19926;-72
2023/06/14 04:16:55;;;;;;;;;;;15.60;99.90;;;;;;4998285;28;19980;-72
2023/06/14 04:19:22;;;;;;;;;;;15.60;99.90;;;;;;4998274;28;19926;-72
2023/06/14 04:21:49;;;;;;;;;;;15.60;99.90;;;;;;4994700;28;19932;-71
2023/06/14 04:24:18;;;;;;;;;;;15.60;99.90;;;;;;4978687;28;19965;-72
2023/06/14 04:26:49;;;;;;;;;;;15.70;99.90;;;;;;4998181;28;19931;-71
2023/06/14 04:29:19;;;;;;;;;;;15.70;99.90;;;;;;4995635;28;19937;-71
2023/06/14 04:31:52;;;;;;;;;;;15.70;99.90;;;;;;4998847;28;19925;-72
2023/06/14 04:34:21;;;;;;;;;;;15.90;99.90;;;;;;4978941;28;19932;-72
2023/06/14 04:36:55;;;;;;;;;;;15.90;99.90;;;;;;4981223;28;19949;-71
2023/06/14 04:39:27;;;;;;;;;;;16.00;99.90;;;;;;4982390;28;20411;-72
2023/06/14 04:41:56;;;;;;;;;;;16.20;99.90;;;;;;4997442;28;20016;-71
2023/06/14 04:44:29;;;;;;;;;;;16.30;99.90;;;;;;4983304;28;19957;-68
2023/06/14 04:46:58;;;;;;;;;;;16.30;99.90;;;;;;4999919;28;20274;-72
2023/06/14 04:49:27;;;;;;;;;;;16.40;99.90;;;;;;5000481;28;19930;-71
2023/06/14 04:51:57;;;;;;;;;;;16.50;99.90;;;;;;5000121;28;19976;-72
2023/06/14 04:54:25;;;;;;;;;;;16.60;99.90;;;;;;4986888;28;19926;-72
2023/06/14 04:56:54;;;;;;;;;;;16.70;99.90;;;;;;4997944;28;19973;-72
2023/06/14 04:59:23;;;;;;;;;;;16.80;99.90;;;;;;5004244;28;19925;-71
2023/06/14 05:01:53;;;;;;;;;;;16.90;99.90;;;;;;4994739;28;19972;-72
2023/06/14 05:04:21;;;;;;;;;;;17.10;99.90;;;;;;4976718;28;19949;-69
2023/06/14 05:06:49;;;;;;;;;;;17.30;99.90;;;;;;4978618;28;19930;-72
2023/06/14 05:09:16;;;;;;;;;;;17.50;99.90;;;;;;4986359;28;19971;-71
2023/06/14 05:11:45;;;;;;;;;;;17.70;99.90;;;;;;4979338;28;20372;-71
2023/06/14 05:14:13;;;;;;;;;;;17.80;99.90;;;;;;5000777;28;19926;-73
2023/06/14 05:16:40;;;;;;;;;;;18.00;99.90;;;;;;4999836;28;19929;-72
2023/06/14 05:19:06;;;;;;;;;;;18.10;99.90;;;;;;4988063;28;19963;-71
2023/06/14 05:21:34;;;;;;;;;;;18.10;99.90;;;;;;4998947;28;19925;-72
2023/06/14 05:24:03;;;;;;;;;;;18.20;99.90;;;;;;4984497;28;19925;-72
2023/06/14 05:26:30;;;;;;;;;;;18.30;99.90;;;;;;5001141;28;19932;-72
2023/06/14 05:28:57;;;;;;;;;;;18.50;99.90;;;;;;4980027;28;20394;-72
2023/06/14 05:31:24;;;;;;;;;;;18.60;99.90;;;;;;4987452;28;19949;-72
2023/06/14 05:33:51;;;;;;;;;;;18.80;99.90;;;;;;4981974;28;19926;-72
2023/06/14 05:36:17;;;;;;;;;;;18.90;99.90;;;;;;4987051;28;19930;-71
2023/06/14 05:38:44;;;;;;;;;;;19.00;99.90;;;;;;5003101;28;19966;-69
2023/06/14 05:41:13;;;;;;;;;;;19.10;99.90;;;;;;5001793;28;19925;-71
2023/06/14 05:43:40;;;;;;;;;;;19.20;99.90;;;;;;4985929;28;19930;-71
2023/06/14 05:46:06;;;;;;;;;;;19.30;99.90;;;;;;4979970;28;20445;-71
2023/06/14 05:48:33;;;;;;;;;;;19.40;99.90;;;;;;5000712;28;19980;-71
2023/06/14 05:51:00;;;;;;;;;;;19.50;99.90;;;;;;4985983;28;19969;-73
2023/06/14 05:53:26;;;;;;;;;;;19.50;99.90;;;;;;5000617;28;19937;-71
2023/06/14 05:55:54;;;;;;;;;;;19.60;99.90;;;;;;5000551;28;19933;-71
2023/06/14 05:58:23;;;;;;;;;;;19.60;99.90;;;;;;4993188;28;19926;-72
2023/06/14 06:00:50;;;;;;;;;;;19.60;99.90;;;;;;5006785;28;19925;-71
2023/06/14 06:03:16;;;;;;;;;;;19.60;99.90;;;;;;4983833;28;19926;-71
2023/06/14 06:05:43;;;;;;;;;;;19.70;99.90;;;;;;5003964;28;19929;-72
2023/06/14 06:08:10;;;;;;;;;;;19.70;99.90;;;;;;5002052;28;19925;-71
2023/06/14 06:10:37;;;;;;;;;;;19.70;99.90;;;;;;4994782;28;19932;-72
2023/06/14 06:13:04;;;;;;;;;;;19.80;99.90;;;;;;4986546;28;19932;-72
2023/06/14 06:15:32;;;;;;;;;;;19.80;99.90;;;;;;4982779;28;19929;-71
2023/06/14 06:17:58;;;;;;;;;;;19.80;99.90;;;;;;5004499;28;19925;-72
2023/06/14 06:20:27;;;;;;;;;;;19.80;99.90;;;;;;5000645;28;20389;-72
2023/06/14 06:22:55;;;;;;;;;;;19.80;99.90;;;;;;5004431;28;19926;-72
2023/06/14 06:25:22;;;;;;;;;;;19.90;99.90;;;;;;4999550;28;19925;-71
2023/06/14 06:27:48;;;;;;;;;;;19.90;99.90;;;;;;4996628;28;20024;-72
2023/06/14 06:30:15;;;;;;;;;;;20.00;99.90;;;;;;5001428;28;19972;-72
2023/06/14 06:32:43;;;;;;;;;;;20.10;99.90;;;;;;4978906;28;19926;-71
2023/06/14 06:35:11;;;;;;;;;;;20.00;99.90;;;;;;4986301;28;19926;-72
2023/06/14 06:37:37;;;;;;;;;;;20.00;99.90;;;;;;4975720;28;19947;-72
2023/06/14 06:40:05;;;;;;;;;;;20.10;99.90;;;;;;5002294;28;19991;-71
2023/06/14 06:42:32;;;;;;;;;;;20.20;99.90;;;;;;4981545;28;19933;-72
2023/06/14 06:45:03;;;;;;;;;;;20.20;99.90;;;;;;5005835;28;19940;-72
2023/06/14 06:47:29;;;;;;;;;;;20.20;99.90;;;;;;4998651;28;19980;-71
2023/06/14 06:49:58;;;;;;;;;;;20.30;99.90;;;;;;5001390;28;19976;-72
2023/06/14 06:52:24;;;;;;;;;;;20.40;99.90;;;;;;5000021;28;19936;-71
2023/06/14 06:54:54;;;;;;;;;;;20.50;99.90;;;;;;4985026;28;19933;-72
2023/06/14 06:57:22;;;;;;;;;;;20.50;99.90;;;;;;5000701;28;19972;-72
2023/06/14 06:59:49;;;;;;;;;;;20.60;99.90;;;;;;4997096;28;19925;-71
2023/06/14 07:02:16;;;;;;;;;;;20.60;99.90;;;;;;4979087;28;19930;-71
2023/06/14 07:04:42;;;;;;;;;;;20.70;99.90;;;;;;5005511;28;19964;-71
2023/06/14 07:07:11;;;;;;;;;;;20.70;99.90;;;;;;5001148;28;19983;-71
2023/06/14 07:09:37;;;;;;;;;;;20.80;99.90;;;;;;4985702;28;20036;-72
2023/06/14 07:12:05;;;;;;;;;;;20.80;99.90;;;;;;4985551;28;19941;-72
2023/06/14 07:14:31;;;;;;;;;;;20.80;99.90;;;;;;4978439;28;19926;-71
2023/06/14 07:16:58;;;;;;;;;;;20.90;99.90;;;;;;4983580;28;19926;-71
2023/06/14 07:19:25;;;;;;;;;;;20.90;99.90;;;;;;4981401;28;19926;-71
2023/06/14 07:21:52;;;;;;;;;;;20.90;99.90;;;;;;5000154;28;19925;-72
2023/06/14 07:24:22;;;;;;;;;;;20.90;99.90;;;;;;4983476;28;19932;-71
2023/06/14 07:26:49;;;;;;;;;;;21.00;99.90;;;;;;4995579;28;19925;-71
2023/06/14 07:29:16;;;;;;;;;;;21.10;99.90;;;;;;5005257;28;19930;-71
2023/06/14 07:31:43;;;;;;;;;;;21.10;99.90;;;;;;4995499;28;19925;-72
2023/06/14 07:34:10;;;;;;;;;;;21.20;99.90;;;;;;4997342;28;19969;-71
2023/06/14 07:36:37;;;;;;;;;;;21.20;99.90;;;;;;4983736;28;20290;-72
2023/06/14 07:39:06;;;;;;;;;;;21.20;99.90;;;;;;4984229;28;19926;-71
2023/06/14 07:41:34;;;;;;;;;;;21.20;99.90;;;;;;4998116;28;19934;-71
2023/06/14 07:44:01;;;;;;;;;;;21.20;99.90;;;;;;5002036;28;19930;-71
2023/06/14 07:46:28;;;;;;;;;;;21.30;99.90;;;;;;4994623;28;19929;-72
2023/06/14 07:48:54;;;;;;;;;;;21.30;99.90;;;;;;4984963;28;19980;-72
2023/06/14 07:51:22;;;;;;;;;;;21.40;99.90;;;;;;4997507;28;19933;-72
2023/06/14 07:53:49;;;;;;;;;;;21.40;99.90;;;;;;5001319;28;19926;-72
2023/06/14 07:56:16;;;;;;;;;;;21.50;99.90;;;;;;4985837;28;19925;-71
2023/06/14 07:58:44;;;;;;;;;;;21.50;99.90;;;;;;5000954;28;20337;-71
2023/06/14 08:01:11;;;;;;;;;;;21.60;99.90;;;;;;5006545;28;19933;-72
2023/06/14 08:03:38;;;;;;;;;;;21.60;99.90;;;;;;4999067;28;19949;-71
2023/06/14 08:06:05;;;;;;;;;;;21.70;99.90;;;;;;4996448;28;19925;-71
2023/06/14 08:08:32;;;;;;;;;;;21.80;99.90;;;;;;4985106;28;19934;-72
2023/06/14 08:10:59;;;;;;;;;;;21.80;99.90;;;;;;4998736;28;20302;-72
2023/06/14 08:13:26;;;;;;;;;;;21.90;99.90;;;;;;4981695;28;19933;-71
2023/06/14 08:15:55;;;;;;;;;;;22.00;99.90;;;;;;5002195;28;19933;-73
2023/06/14 08:18:21;;;;;;;;;;;22.00;99.90;;;;;;4984760;28;19925;-72
2023/06/14 08:20:49;;;;;;;;;;;22.10;99.90;;;;;;5004768;28;20371;-72
2023/06/14 08:23:18;;;;;;;;;;;22.30;99.90;;;;;;5010876;28;20025;-72
2023/06/14 08:25:45;;;;;;;;;;;22.40;99.90;;;;;;4988106;28;19934;-71
2023/06/14 08:28:12;;;;;;;;;;;22.50;99.90;;;;;;5004824;28;19926;-71
2023/06/14 08:30:39;;;;;;;;;;;22.50;99.90;;;;;;5007078;28;19929;-72
2023/06/14 08:33:07;;;;;;;;;;;22.50;99.90;;;;;;4991273;28;19926;-72
2023/06/14 08:35:36;;;;;;;;;;;22.60;99.90;;;;;;4983197;28;20033;-72
2023/06/14 08:38:03;;;;;;;;;;;22.70;99.90;;;;;;4998208;28;20436;-72
2023/06/14 08:40:31;;;;;;;;;;;22.80;99.90;;;;;;4998794;28;19925;-71
2023/06/14 08:42:58;;;;;;;;;;;22.90;99.90;;;;;;4985283;28;19926;-72
2023/06/14 08:45:25;;;;;;;;;;;22.90;99.90;;;;;;5007367;28;20082;-72
2023/06/14 08:47:57;;;;;;;;;;;22.90;99.90;;;;;;5008577;28;20024;-72
2023/06/14 08:50:29;;;;;;;;;;;23.00;99.90;;;;;;5005601;28;19953;-72
2023/06/14 08:53:00;;;;;;;;;;;23.00;99.90;;;;;;5010189;28;20009;-72
2023/06/14 08:55:28;;;;;;;;;;;23.10;99.90;;;;;;5004184;28;20381;-72
2023/06/14 08:57:55;;;;;;;;;;;23.10;99.90;;;;;;5000122;28;19930;-71
2023/06/14 09:00:24;;;;;;;;;;;23.10;99.90;;;;;;4987048;28;19929;-71
2023/06/14 09:02:55;;;;;;;;;;;23.10;99.90;;;;;;4984286;28;20024;-72
2023/06/14 09:05:23;;;;;;;;;;;23.20;99.90;;;;;;5011933;28;19926;-72
2023/06/14 09:07:52;;;;;;;;;;;23.20;99.90;;;;;;4990617;28;19926;-71
2023/06/14 09:10:19;;;;;;;;;;;23.30;99.90;;;;;;5003745;28;20416;-72
2023/06/14 09:12:46;;;;;;;;;;;23.40;99.90;;;;;;5010684;28;19926;-71
2023/06/14 09:15:14;;;;;;;;;;;23.40;99.90;;;;;;4992303;28;19991;-72
2023/06/14 09:17:40;;;;;;;;;;;23.40;99.90;;;;;;5012366;28;19991;-72
2023/06/14 09:20:09;;;;;;;;;;;23.60;99.90;;;;;;5009151;28;19934;-72
2023/06/14 09:22:36;;;;;;;;;;;23.60;99.90;;;;;;5007213;28;19926;-72
2023/06/14 09:25:05;;;;;;;;;;;23.70;99.90;;;;;;5007405;28;19930;-71
2023/06/14 09:27:32;;;;;;;;;;;23.70;99.90;;;;;;4984004;28;20025;-71
2023/06/14 09:29:58;;;;;;;;;;;23.90;99.90;;;;;;4984969;28;19926;-71
2023/06/14 09:32:26;;;;;;;;;;;23.90;99.90;;;;;;5007268;28;19930;-71
2023/06/14 09:34:52;;;;;;;;;;;23.90;99.90;;;;;;5005070;28;20325;-71
2023/06/14 09:37:30;;;;;;;;;;;23.80;99.90;;;;;;5009031;28;20120;-71
2023/06/14 09:39:57;;;;;;;;;;;23.90;99.90;;;;;;5009015;28;19938;-71
2023/06/14 09:42:25;;;;;;;;;;;24.00;99.90;;;;;;4989408;28;19926;-71
2023/06/14 09:44:53;;;;;;;;;;;24.10;99.90;;;;;;5003465;28;19925;-72
2023/06/14 09:47:20;;;;;;;;;;;24.20;99.90;;;;;;4989549;28;19930;-71
2023/06/14 09:49:47;;;;;;;;;;;24.20;99.90;;;;;;5005061;28;19929;-71
2023/06/14 09:52:15;;;;;;;;;;;24.30;99.90;;;;;;4994175;28;19933;-71
2023/06/14 09:54:43;;;;;;;;;;;24.40;99.90;;;;;;5008824;28;19925;-71
2023/06/14 09:57:11;;;;;;;;;;;24.50;99.90;;;;;;5009883;28;19987;-71
2023/06/14 09:59:41;;;;;;;;;;;24.50;99.90;;;;;;4998979;28;19925;-72
2023/06/14 10:02:10;;;;;;;;;;;24.50;99.90;;;;;;5005448;28;19930;-71
2023/06/14 10:04:38;;;;;;;;;;;24.40;99.40;;;;;;4988186;28;19929;-72
2023/06/14 10:07:05;;;;;;;;;;;24.40;99.60;;;;;;5007681;28;19932;-72
2023/06/14 10:09:32;;;;;;;;;;;24.40;99.90;;;;;;5001221;28;19929;-71
2023/06/14 10:11:59;;;;;;;;;;;24.50;99.40;;;;;;4990154;28;20464;-71
2023/06/14 10:14:27;;;;;;;;;;;24.60;99.90;;;;;;4991722;28;20419;-71
2023/06/14 10:16:57;;;;;;;;;;;24.50;99.30;;;;;;4991108;28;20381;-71
2023/06/14 10:19:26;;;;;;;;;;;24.40;99.80;;;;;;4995320;28;19932;-71
2023/06/14 10:21:57;;;;;;;;;;;24.40;99.90;;;;;;4980575;28;20286;-71
2023/06/14 10:24:27;;;;;;;;;;;24.50;99.90;;;;;;4985749;28;19926;-71
2023/06/14 10:26:55;;;;;;;;;;;24.50;99.40;;;;;;4987515;28;19925;-72
2023/06/14 10:29:22;;;;;;;;;;;24.50;99.50;;;;;;4991856;28;19926;-71
2023/06/14 10:31:50;;;;;;;;;;;24.40;99.80;;;;;;5004008;28;19926;-71
2023/06/14 10:34:25;;;;;;;;;;;24.50;99.90;;;;;;4992351;28;20028;-71
2023/06/14 10:37:02;;;;;;;;;;;24.60;99.80;;;;;;5006393;28;19937;-71
2023/06/14 10:39:29;;;;;;;;;;;24.70;99.90;;;;;;4982637;28;19925;-72
2023/06/14 10:41:57;;;;;;;;;;;24.80;99.90;;;;;;5005910;28;19991;-71
2023/06/14 10:44:40;;;;;;;;;;;24.90;99.90;;;;;;4994721;28;19976;-71
2023/06/14 10:47:08;;;;;;;;;;;25.00;99.90;;;;;;5002935;28;20368;-71
2023/06/14 10:49:41;;;;;;;;;;;25.10;99.90;;;;;;5007132;28;19929;-71
2023/06/14 10:52:16;;;;;;;;;;;25.10;99.90;;;;;;5002984;28;19956;-72
2023/06/14 10:54:56;;;;;;;;;;;25.40;99.90;;;;;;4981290;28;19925;-72
2023/06/14 10:57:23;;;;;;;;;;;25.40;99.90;;;;;;5005028;28;19952;-72
2023/06/14 10:59:50;;;;;;;;;;;25.20;99.30;;;;;;4990072;28;19936;-72
2023/06/14 11:02:24;;;;;;;;;;;25.20;99.80;;;;;;4987799;28;19926;-71
2023/06/14 11:04:53;;;;;;;;;;;25.20;99.80;;;;;;4992861;28;20454;-72
2023/06/14 11:07:38;;;;;;;;;;;25.40;99.90;;;;;;5001592;28;19929;-72
2023/06/14 11:10:10;;;;;;;;;;;25.50;99.90;;;;;;4977091;28;20390;-72
2023/06/14 11:12:37;;;;;;;;;;;25.70;99.90;;;;;;4980754;28;19926;-72
2023/06/14 11:15:06;;;;;;;;;;;25.80;99.90;;;;;;4995806;28;19930;-72
2023/06/14 11:17:33;;;;;;;;;;;25.90;99.90;;;;;;4978485;28;19964;-71
2023/06/14 11:20:15;;;;;;;;;;;26.00;99.90;;;;;;4980125;28;19930;-73
2023/06/14 11:22:43;;;;;;;;;;;26.10;99.90;;;;;;4974764;28;20020;-72
2023/06/14 11:25:10;;;;;;;;;;;26.00;99.90;;;;;;5000522;28;20415;-72
2023/06/14 11:27:36;;;;;;;;;;;26.20;99.90;;;;;;4993769;28;19926;-72
2023/06/14 11:30:04;;;;;;;;;;;26.50;99.90;;;;;;4976379;28;19925;-73
2023/06/14 11:32:32;;;;;;;;;;;26.50;99.90;;;;;;4986827;28;19983;-73
2023/06/14 11:34:59;;;;;;;;;;;26.60;99.90;;;;;;4999357;28;20024;-72
2023/06/14 11:37:28;;;;;;;;;;;26.90;99.90;;;;;;4979482;28;19929;-72
2023/06/14 11:39:56;;;;;;;;;;;27.30;99.90;;;;;;5003341;28;19925;-72
2023/06/14 11:42:23;;;;;;;;;;;28.00;99.90;;;;;;4981771;28;19930;-72
2023/06/14 11:44:50;;;;;;;;;;;28.80;99.90;;;;;;5002578;28;19975;-71
2023/06/14 11:47:17;;;;;;;;;;;30.20;99.90;;;;;;4993468;28;20070;-73
2023/06/14 11:49:44;;;;;;;;;;;31.20;99.80;;;;;;5001044;28;20415;-72
2023/06/14 11:52:11;;;;;;;;;;;31.40;97.90;;;;;;5005569;28;20385;-73
2023/06/14 11:54:40;;;;;;;;;;;31.00;98.30;;;;;;5010084;28;20388;-72
2023/06/14 11:57:07;;;;;;;;;;;31.80;99.40;;;;;;5001290;28;19932;-72
2023/06/14 11:59:38;;;;;;;;;;;32.10;97.60;;;;;;4987767;28;19930;-73
2023/06/14 12:02:05;;;;;;;;;;;32.40;96.80;;;;;;5008483;28;19964;-72
2023/06/14 12:04:32;;;;;;;;;;;32.50;97.00;;;;;;4996375;28;19934;-72
2023/06/14 12:07:09;;;;;;;;;;;32.60;96.80;;;;;;5002024;28;19957;-72
2023/06/14 12:09:36;;;;;;;;;;;32.80;96.70;;;;;;5003453;28;19957;-72
2023/06/14 12:12:05;;;;;;;;;;;33.50;96.80;;;;;;4985702;28;19926;-72
2023/06/14 12:14:32;;;;;;;;;;;34.00;95.90;;;;;;4998624;28;19929;-72
2023/06/14 12:17:05;;;;;;;;;;;34.60;94.60;;;;;;4979552;28;19925;-72
2023/06/14 12:19:32;;;;;;;;;;;35.10;95.20;;;;;;5001585;28;19970;-72
2023/06/14 12:22:00;;;;;;;;;;;35.80;95.20;;;;;;4980158;28;19926;-72
2023/06/14 12:24:28;;;;;;;;;;;36.10;94.70;;;;;;4985340;28;19969;-72
2023/06/14 12:26:55;;;;;;;;;;;36.10;93.50;;;;;;4986413;28;19930;-72
2023/06/14 12:29:23;;;;;;;;;;;36.10;93.80;;;;;;4993656;28;19996;-72
2023/06/14 12:31:50;;;;;;;;;;;36.10;93.50;;;;;;4997614;28;19925;-72
2023/06/14 12:34:17;;;;;;;;;;;35.20;93.80;;;;;;4985148;28;20311;-72
2023/06/14 12:36:46;;;;;;;;;;;35.30;94.10;;;;;;4994692;28;19926;-72
2023/06/14 12:39:12;;;;;;;;;;;35.20;93.50;;;;;;4980372;28;19930;-72
2023/06/14 12:41:41;;;;;;;;;;;35.50;94.10;;;;;;4998375;28;20352;-72
2023/06/14 12:44:07;;;;;;;;;;;36.60;94.00;;;;;;4986462;28;19926;-73
2023/06/14 12:46:36;;;;;;;;;;;37.10;93.50;;;;;;5012067;28;19926;-72
2023/06/14 12:49:03;;;;;;;;;;;36.90;93.20;;;;;;4996392;28;19961;-72
2023/06/14 12:51:30;;;;;;;;;;;36.40;93.10;;;;;;5000969;28;19929;-72
2023/06/14 12:53:56;;;;;;;;;;;36.50;93.10;;;;;;5004393;28;19945;-72
2023/06/14 12:56:23;;;;;;;;;;;36.30;94.30;;;;;;4985393;28;19930;-72
2023/06/14 12:58:50;;;;;;;;;;;36.30;94.40;;;;;;5002019;28;19984;-72
2023/06/14 13:01:17;;;;;;;;;;;37.60;94.20;;;;;;4983833;28;19933;-72
2023/06/14 13:03:46;;;;;;;;;;;38.00;94.00;;;;;;4993551;28;19932;-71
2023/06/14 13:06:13;;;;;;;;;;;38.00;93.80;;;;;;4978341;28;20020;-72
2023/06/14 13:08:40;;;;;;;;;;;37.40;94.30;;;;;;4994762;28;19930;-72
2023/06/14 13:11:06;;;;;;;;;;;36.60;93.90;;;;;;4978609;28;19930;-72
2023/06/14 13:13:33;;;;;;;;;;;37.00;93.50;;;;;;4993997;28;19925;-72
2023/06/14 13:16:00;;;;;;;;;;;37.80;93.70;;;;;;4985016;28;19925;-72
2023/06/14 13:18:27;;;;;;;;;;;38.60;94.10;;;;;;4993335;28;19925;-72
2023/06/14 13:20:55;;;;;;;;;;;38.80;93.00;;;;;;5001295;28;19933;-72
2023/06/14 13:23:22;;;;;;;;;;;38.50;93.30;;;;;;4995167;28;19926;-72
2023/06/14 13:25:49;;;;;;;;;;;37.90;93.30;;;;;;5001395;28;20344;-72
2023/06/14 13:28:16;;;;;;;;;;;37.40;93.60;;;;;;4978662;28;20420;-72
2023/06/14 13:30:43;;;;;;;;;;;36.60;93.30;;;;;;4993231;28;19929;-72
2023/06/14 13:33:09;;;;;;;;;;;36.50;93.30;;;;;;4978097;28;20034;-72
2023/06/14 13:35:36;;;;;;;;;;;36.10;93.60;;;;;;4996757;28;19931;-72
2023/06/14 13:38:04;;;;;;;;;;;37.10;94.10;;;;;;4993162;28;19926;-72
2023/06/14 13:40:31;;;;;;;;;;;37.20;93.10;;;;;;4977283;28;19932;-72
2023/06/14 13:42:58;;;;;;;;;;;37.80;93.30;;;;;;4993577;28;19930;-72
2023/06/14 13:45:25;;;;;;;;;;;38.70;93.50;;;;;;4995234;28;19934;-72
2023/06/14 13:47:51;;;;;;;;;;;39.30;92.60;;;;;;5003945;28;19933;-72
2023/06/14 13:50:18;;;;;;;;;;;39.10;92.80;;;;;;4978242;28;20341;-72
2023/06/14 13:52:45;;;;;;;;;;;38.00;92.70;;;;;;4997590;28;19926;-72
2023/06/14 13:55:13;;;;;;;;;;;38.00;92.90;;;;;;4977318;28;19926;-72
2023/06/14 13:57:40;;;;;;;;;;;37.30;92.90;;;;;;4992709;28;19933;-72
2023/06/14 14:00:08;;;;;;;;;;;37.60;93.10;;;;;;4993365;28;19979;-72
2023/06/14 14:02:42;;;;;;;;;;;37.60;92.80;;;;;;4991105;28;20353;-72
2023/06/14 14:05:09;;;;;;;;;;;37.10;92.20;;;;;;4993477;28;20397;-72
2023/06/14 14:07:36;;;;;;;;;;;36.10;92.70;;;;;;4995801;28;20012;-72
2023/06/14 14:10:02;;;;;;;;;;;35.80;92.20;;;;;;4985232;28;19932;-72
2023/06/14 14:12:31;;;;;;;;;;;35.30;92.50;;;;;;4977864;28;20012;-72
2023/06/14 14:14:57;;;;;;;;;;;34.70;92.90;;;;;;5000787;28;19926;-72
2023/06/14 14:17:24;;;;;;;;;;;33.90;92.90;;;;;;4987306;28;19930;-72
2023/06/14 14:19:51;;;;;;;;;;;34.20;93.40;;;;;;4976048;28;20028;-72